sensor_id;sensor_type;location;lat;lon;timestamp;pressure;altitude;pressure_sealevel;temperature;humidity
7178;BME280;3630;42.146;24.756;2023-02-28T00:00:40;99993.03;;;11.66;74.62
7178;BME280;3630;42.146;24.756;2023-02-28T00:03:06;100003.25;;;11.62;74.54
7178;BME280;3630;42.146;24.756;2023-02-28T00:05:33;100005.03;;;11.66;74.94
7178;BME280;3630;42.146;24.756;2023-02-28T00:08:00;100006.00;;;11.69;74.60
7178;BME280;3630;42.146;24.756;2023-02-28T00:10:29;99999.06;;;11.67;74.63
7178;BME280;3630;42.146;24.756;2023-02-28T00:13:00;100009.31;;;11.65;74.80
7178;BME280;3630;42.146;24.756;2023-02-28T00:15:30;100005.25;;;11.75;74.28
7178;BME280;3630;42.146;24.756;2023-02-28T00:17:58;100007.91;;;11.79;73.79
7178;BME280;3630;42.146;24.756;2023-02-28T00:20:25;100007.09;;;11.80;74.03
7178;BME280;3630;42.146;24.756;2023-02-28T00:22:52;100005.19;;;11.72;74.27
7178;BME280;3630;42.146;24.756;2023-02-28T00:25:23;100000.13;;;11.75;73.79
7178;BME280;3630;42.146;24.756;2023-02-28T00:27:52;100004.53;;;11.82;74.22
7178;BME280;3630;42.146;24.756;2023-02-28T00:30:20;100010.34;;;11.72;74.24
7178;BME280;3630;42.146;24.756;2023-02-28T00:32:48;99901.78;;;11.07;74.26
7178;BME280;3630;42.146;24.756;2023-02-28T00:35:15;100000.94;;;11.74;74.22
7178;BME280;3630;42.146;24.756;2023-02-28T00:37:42;99995.03;;;11.78;74.09
7178;BME280;3630;42.146;24.756;2023-02-28T00:40:10;99979.41;;;11.69;74.21
7178;BME280;3630;42.146;24.756;2023-02-28T00:42:38;99983.72;;;11.71;74.48
7178;BME280;3630;42.146;24.756;2023-02-28T00:45:07;99992.28;;;11.69;74.52
7178;BME280;3630;42.146;24.756;2023-02-28T00:47:34;99995.53;;;11.62;75.20
7178;BME280;3630;42.146;24.756;2023-02-28T00:50:02;99999.88;;;11.64;75.00
7178;BME280;3630;42.146;24.756;2023-02-28T00:52:29;100005.13;;;11.69;74.65
7178;BME280;3630;42.146;24.756;2023-02-28T00:54:56;100003.59;;;11.77;74.70
7178;BME280;3630;42.146;24.756;2023-02-28T00:57:23;99989.13;;;11.83;74.06
7178;BME280;3630;42.146;24.756;2023-02-28T00:59:50;99998.50;;;11.81;74.10
7178;BME280;3630;42.146;24.756;2023-02-28T01:02:20;100008.84;;;11.83;74.42
7178;BME280;3630;42.146;24.756;2023-02-28T01:04:47;100006.34;;;11.88;73.95
7178;BME280;3630;42.146;24.756;2023-02-28T01:07:14;100013.28;;;11.90;73.62
7178;BME280;3630;42.146;24.756;2023-02-28T01:09:41;100016.78;;;11.94;73.84
7178;BME280;3630;42.146;24.756;2023-02-28T01:12:08;100020.16;;;11.91;73.80
7178;BME280;3630;42.146;24.756;2023-02-28T01:14:35;100031.13;;;11.81;73.75
7178;BME280;3630;42.146;24.756;2023-02-28T01:17:02;100030.31;;;11.83;73.71
7178;BME280;3630;42.146;24.756;2023-02-28T01:19:30;100031.22;;;11.86;73.82
7178;BME280;3630;42.146;24.756;2023-02-28T01:22:00;100032.97;;;11.88;73.92
7178;BME280;3630;42.146;24.756;2023-02-28T01:24:27;100035.56;;;11.88;73.47
7178;BME280;3630;42.146;24.756;2023-02-28T01:26:54;100035.63;;;11.91;72.65
7178;BME280;3630;42.146;24.756;2023-02-28T01:29:21;100032.22;;;11.94;72.91
7178;BME280;3630;42.146;24.756;2023-02-28T01:31:48;100028.09;;;12.02;72.68
7178;BME280;3630;42.146;24.756;2023-02-28T01:34:15;100024.81;;;12.10;71.66
7178;BME280;3630;42.146;24.756;2023-02-28T01:36:43;100034.38;;;12.16;71.20
7178;BME280;3630;42.146;24.756;2023-02-28T01:39:09;100038.78;;;12.21;71.22
7178;BME280;3630;42.146;24.756;2023-02-28T01:41:37;100048.19;;;12.19;71.61
7178;BME280;3630;42.146;24.756;2023-02-28T01:44:06;100042.03;;;12.13;71.12
7178;BME280;3630;42.146;24.756;2023-02-28T01:46:35;100057.50;;;12.14;71.51
7178;BME280;3630;42.146;24.756;2023-02-28T01:49:06;100059.13;;;12.09;71.52
7178;BME280;3630;42.146;24.756;2023-02-28T01:51:38;100077.97;;;12.05;72.14
7178;BME280;3630;42.146;24.756;2023-02-28T01:54:09;100070.06;;;11.98;71.94
7178;BME280;3630;42.146;24.756;2023-02-28T01:56:41;100065.72;;;11.95;72.27
7178;BME280;3630;42.146;24.756;2023-02-28T01:59:12;100073.69;;;12.07;72.04
7178;BME280;3630;42.146;24.756;2023-02-28T02:01:40;100070.97;;;12.00;71.85
7178;BME280;3630;42.146;24.756;2023-02-28T02:04:08;100085.63;;;12.04;72.35
7178;BME280;3630;42.146;24.756;2023-02-28T02:06:38;100086.50;;;12.03;72.45
7178;BME280;3630;42.146;24.756;2023-02-28T02:09:07;100093.44;;;12.07;71.86
7178;BME280;3630;42.146;24.756;2023-02-28T02:11:34;100088.16;;;12.01;72.41
7178;BME280;3630;42.146;24.756;2023-02-28T02:14:21;100085.47;;;11.95;72.56
7178;BME280;3630;42.146;24.756;2023-02-28T02:16:59;100089.13;;;12.06;72.52
7178;BME280;3630;42.146;24.756;2023-02-28T02:20:14;100065.56;;;11.86;71.50
7178;BME280;3630;42.146;24.756;2023-02-28T02:23:05;100096.56;;;11.92;70.35
7178;BME280;3630;42.146;24.756;2023-02-28T02:25:40;100088.69;;;11.84;70.45
7178;BME280;3630;42.146;24.756;2023-02-28T02:34:25;100095.94;;;11.65;72.66
7178;BME280;3630;42.146;24.756;2023-02-28T02:37:00;100097.69;;;11.66;73.73
7178;BME280;3630;42.146;24.756;2023-02-28T02:39:36;100108.81;;;11.65;75.68
7178;BME280;3630;42.146;24.756;2023-02-28T02:42:13;100109.44;;;11.53;76.60
7178;BME280;3630;42.146;24.756;2023-02-28T02:44:44;100109.38;;;11.50;76.61
7178;BME280;3630;42.146;24.756;2023-02-28T02:47:15;100098.06;;;11.44;77.08
7178;BME280;3630;42.146;24.756;2023-02-28T02:49:47;100112.69;;;11.45;77.24
7178;BME280;3630;42.146;24.756;2023-02-28T02:52:18;100117.69;;;11.40;77.60
7178;BME280;3630;42.146;24.756;2023-02-28T02:54:48;100109.97;;;11.40;77.92
7178;BME280;3630;42.146;24.756;2023-02-28T02:57:22;100122.97;;;11.45;78.22
7178;BME280;3630;42.146;24.756;2023-02-28T02:59:51;100124.59;;;11.40;78.39
7178;BME280;3630;42.146;24.756;2023-02-28T03:02:21;100131.50;;;11.42;78.66
7178;BME280;3630;42.146;24.756;2023-02-28T03:04:52;100039.34;;;10.87;79.40
7178;BME280;3630;42.146;24.756;2023-02-28T03:07:20;100136.72;;;11.45;79.26
7178;BME280;3630;42.146;24.756;2023-02-28T03:09:51;100143.47;;;11.42;79.94
7178;BME280;3630;42.146;24.756;2023-02-28T03:12:19;100142.69;;;11.44;80.40
7178;BME280;3630;42.146;24.756;2023-02-28T03:14:55;100144.28;;;11.39;81.13
7178;BME280;3630;42.146;24.756;2023-02-28T03:17:44;100143.50;;;11.43;81.05
7178;BME280;3630;42.146;24.756;2023-02-28T03:20:27;100152.03;;;11.41;81.72
7178;BME280;3630;42.146;24.756;2023-02-28T03:23:07;100153.56;;;11.33;82.04
7178;BME280;3630;42.146;24.756;2023-02-28T03:25:46;100160.41;;;11.32;82.57
7178;BME280;3630;42.146;24.756;2023-02-28T03:28:21;100155.06;;;11.23;83.31
7178;BME280;3630;42.146;24.756;2023-02-28T03:30:57;100165.38;;;11.24;83.67
7178;BME280;3630;42.146;24.756;2023-02-28T03:33:29;100149.78;;;11.18;83.81
7178;BME280;3630;42.146;24.756;2023-02-28T03:36:01;100161.91;;;11.24;84.19
7178;BME280;3630;42.146;24.756;2023-02-28T03:38:33;100155.88;;;11.22;84.51
7178;BME280;3630;42.146;24.756;2023-02-28T03:41:09;100156.44;;;11.10;84.75
7178;BME280;3630;42.146;24.756;2023-02-28T03:43:41;100155.56;;;11.10;85.17
7178;BME280;3630;42.146;24.756;2023-02-28T03:46:10;100167.69;;;11.15;85.55
7178;BME280;3630;42.146;24.756;2023-02-28T03:48:42;100162.13;;;10.99;86.26
7178;BME280;3630;42.146;24.756;2023-02-28T03:51:15;100169.91;;;11.00;86.58
7178;BME280;3630;42.146;24.756;2023-02-28T03:53:45;100174.22;;;11.01;87.04
7178;BME280;3630;42.146;24.756;2023-02-28T03:56:17;100185.34;;;11.00;86.97
7178;BME280;3630;42.146;24.756;2023-02-28T03:58:50;100180.84;;;10.93;87.36
7178;BME280;3630;42.146;24.756;2023-02-28T04:01:21;100185.78;;;10.84;88.08
7178;BME280;3630;42.146;24.756;2023-02-28T04:03:50;100189.41;;;10.92;88.00
7178;BME280;3630;42.146;24.756;2023-02-28T04:06:20;100196.06;;;10.84;88.56
7178;BME280;3630;42.146;24.756;2023-02-28T04:08:48;100192.00;;;10.92;88.46
7178;BME280;3630;42.146;24.756;2023-02-28T04:11:20;100185.50;;;10.74;88.52
7178;BME280;3630;42.146;24.756;2023-02-28T04:13:47;100202.19;;;10.89;88.69
7178;BME280;3630;42.146;24.756;2023-02-28T04:16:14;100205.75;;;10.94;88.53
7178;BME280;3630;42.146;24.756;2023-02-28T04:18:41;100213.88;;;10.78;88.73
7178;BME280;3630;42.146;24.756;2023-02-28T04:21:10;100215.56;;;10.78;89.19
7178;BME280;3630;42.146;24.756;2023-02-28T04:23:38;100223.72;;;10.93;88.62
7178;BME280;3630;42.146;24.756;2023-02-28T04:26:05;100222.78;;;10.91;88.59
7178;BME280;3630;42.146;24.756;2023-02-28T04:28:32;100219.41;;;10.92;88.00
7178;BME280;3630;42.146;24.756;2023-02-28T04:31:00;100213.38;;;10.91;87.44
7178;BME280;3630;42.146;24.756;2023-02-28T04:33:28;100205.66;;;10.91;87.20
7178;BME280;3630;42.146;24.756;2023-02-28T04:35:59;100135.63;;;10.36;87.28
7178;BME280;3630;42.146;24.756;2023-02-28T04:38:26;100213.06;;;10.79;87.81
7178;BME280;3630;42.146;24.756;2023-02-28T04:40:56;100207.13;;;10.82;87.48
7178;BME280;3630;42.146;24.756;2023-02-28T04:43:23;100209.72;;;10.83;87.49
7178;BME280;3630;42.146;24.756;2023-02-28T04:45:50;100210.81;;;10.91;87.07
7178;BME280;3630;42.146;24.756;2023-02-28T04:48:17;100217.78;;;10.95;86.63
7178;BME280;3630;42.146;24.756;2023-02-28T04:50:44;100225.94;;;10.81;87.44
7178;BME280;3630;42.146;24.756;2023-02-28T04:53:10;100214.16;;;10.89;86.75
7178;BME280;3630;42.146;24.756;2023-02-28T04:55:37;100211.75;;;10.95;86.48
7178;BME280;3630;42.146;24.756;2023-02-28T04:58:06;100209.28;;;10.98;85.78
7178;BME280;3630;42.146;24.756;2023-02-28T05:00:33;100222.06;;;10.96;85.92
7178;BME280;3630;42.146;24.756;2023-02-28T05:03:00;100229.06;;;11.00;85.37
7178;BME280;3630;42.146;24.756;2023-02-28T05:05:27;100234.13;;;10.99;85.51
7178;BME280;3630;42.146;24.756;2023-02-28T05:07:54;100249.09;;;11.12;84.64
7178;BME280;3630;42.146;24.756;2023-02-28T05:10:21;100250.69;;;11.08;84.17
7178;BME280;3630;42.146;24.756;2023-02-28T05:12:48;100248.84;;;11.04;84.26
7178;BME280;3630;42.146;24.756;2023-02-28T05:15:17;100251.31;;;11.00;84.26
7178;BME280;3630;42.146;24.756;2023-02-28T05:17:43;100251.94;;;10.91;84.02
7178;BME280;3630;42.146;24.756;2023-02-28T05:20:12;100245.56;;;10.77;84.77
7178;BME280;3630;42.146;24.756;2023-02-28T05:22:40;100257.56;;;10.77;84.81
7178;BME280;3630;42.146;24.756;2023-02-28T05:25:08;100251.38;;;10.70;84.98
7178;BME280;3630;42.146;24.756;2023-02-28T05:27:37;100252.16;;;10.68;85.00
7178;BME280;3630;42.146;24.756;2023-02-28T05:30:06;100263.63;;;10.80;84.83
7178;BME280;3630;42.146;24.756;2023-02-28T05:32:37;100262.91;;;10.84;84.83
7178;BME280;3630;42.146;24.756;2023-02-28T05:35:04;100268.25;;;10.92;84.12
7178;BME280;3630;42.146;24.756;2023-02-28T05:37:32;100277.81;;;10.97;83.12
7178;BME280;3630;42.146;24.756;2023-02-28T05:39:59;100275.28;;;10.99;83.29
7178;BME280;3630;42.146;24.756;2023-02-28T05:42:26;100273.56;;;10.98;82.99
7178;BME280;3630;42.146;24.756;2023-02-28T05:44:53;100289.97;;;11.03;83.11
7178;BME280;3630;42.146;24.756;2023-02-28T05:47:20;100289.25;;;11.07;82.83
7178;BME280;3630;42.146;24.756;2023-02-28T05:49:48;100291.59;;;10.99;82.63
7178;BME280;3630;42.146;24.756;2023-02-28T05:52:15;100285.63;;;11.00;82.94
7178;BME280;3630;42.146;24.756;2023-02-28T05:54:41;100283.78;;;10.96;82.65
7178;BME280;3630;42.146;24.756;2023-02-28T05:57:08;100291.38;;;10.92;82.58
7178;BME280;3630;42.146;24.756;2023-02-28T05:59:35;100293.28;;;10.99;83.00
7178;BME280;3630;42.146;24.756;2023-02-28T06:02:05;100289.59;;;10.89;83.00
7178;BME280;3630;42.146;24.756;2023-02-28T06:04:32;100293.03;;;10.90;83.30
7178;BME280;3630;42.146;24.756;2023-02-28T06:07:00;100298.47;;;11.00;82.55
7178;BME280;3630;42.146;24.756;2023-02-28T06:09:27;100296.22;;;11.12;82.14
7178;BME280;3630;42.146;24.756;2023-02-28T06:11:54;100311.59;;;11.09;81.64
7178;BME280;3630;42.146;24.756;2023-02-28T06:14:21;100307.94;;;11.01;82.09
7178;BME280;3630;42.146;24.756;2023-02-28T06:16:48;100305.13;;;10.92;82.89
7178;BME280;3630;42.146;24.756;2023-02-28T06:19:14;100323.03;;;10.89;82.64
7178;BME280;3630;42.146;24.756;2023-02-28T06:21:41;100301.88;;;10.70;83.39
7178;BME280;3630;42.146;24.756;2023-02-28T06:24:10;100317.00;;;10.89;82.94
7178;BME280;3630;42.146;24.756;2023-02-28T06:26:37;100310.06;;;10.86;83.31
7178;BME280;3630;42.146;24.756;2023-02-28T06:29:04;100307.00;;;10.99;82.64
7178;BME280;3630;42.146;24.756;2023-02-28T06:31:30;100305.28;;;10.98;82.55
7178;BME280;3630;42.146;24.756;2023-02-28T06:33:57;100312.41;;;11.08;82.92
7178;BME280;3630;42.146;24.756;2023-02-28T06:36:24;100318.13;;;11.30;81.88
7178;BME280;3630;42.146;24.756;2023-02-28T06:38:51;100317.41;;;11.35;81.56
7178;BME280;3630;42.146;24.756;2023-02-28T06:41:22;100322.91;;;11.49;80.17
7178;BME280;3630;42.146;24.756;2023-02-28T06:43:49;100317.91;;;11.53;80.14
7178;BME280;3630;42.146;24.756;2023-02-28T06:46:16;100315.34;;;11.53;80.02
7178;BME280;3630;42.146;24.756;2023-02-28T06:48:44;100311.09;;;11.57;79.72
7178;BME280;3630;42.146;24.756;2023-02-28T06:51:13;100313.50;;;11.49;79.70
7178;BME280;3630;42.146;24.756;2023-02-28T06:53:40;100228.38;;;11.07;79.96
7178;BME280;3630;42.146;24.756;2023-02-28T06:56:09;100328.66;;;11.70;78.80
7178;BME280;3630;42.146;24.756;2023-02-28T06:58:38;100334.44;;;11.63;79.12
7178;BME280;3630;42.146;24.756;2023-02-28T07:01:06;100331.13;;;11.67;78.76
7178;BME280;3630;42.146;24.756;2023-02-28T07:03:34;100334.31;;;11.58;79.19
7178;BME280;3630;42.146;24.756;2023-02-28T07:06:01;100327.44;;;11.57;78.92
7178;BME280;3630;42.146;24.756;2023-02-28T07:08:29;100337.25;;;11.39;79.81
7178;BME280;3630;42.146;24.756;2023-02-28T07:10:57;100334.44;;;11.30;80.67
7178;BME280;3630;42.146;24.756;2023-02-28T07:13:24;100327.88;;;11.41;80.56
7178;BME280;3630;42.146;24.756;2023-02-28T07:15:57;100332.19;;;11.42;79.63
7178;BME280;3630;42.146;24.756;2023-02-28T07:18:24;100327.88;;;11.41;79.67
7178;BME280;3630;42.146;24.756;2023-02-28T07:20:52;100338.28;;;11.46;79.72
7178;BME280;3630;42.146;24.756;2023-02-28T07:23:19;100331.97;;;11.35;79.74
7178;BME280;3630;42.146;24.756;2023-02-28T07:25:46;100339.28;;;11.51;80.03
7178;BME280;3630;42.146;24.756;2023-02-28T07:28:13;100340.34;;;11.59;79.24
7178;BME280;3630;42.146;24.756;2023-02-28T07:30:40;100353.34;;;11.65;78.79
7178;BME280;3630;42.146;24.756;2023-02-28T07:33:09;100332.19;;;11.42;78.63
7178;BME280;3630;42.146;24.756;2023-02-28T07:35:35;100331.78;;;11.27;79.41
7178;BME280;3630;42.146;24.756;2023-02-28T07:38:02;100364.16;;;11.52;79.50
7178;BME280;3630;42.146;24.756;2023-02-28T07:40:29;100370.34;;;11.25;80.01
7178;BME280;3630;42.146;24.756;2023-02-28T07:42:56;100354.81;;;11.22;80.40
7178;BME280;3630;42.146;24.756;2023-02-28T07:45:25;100365.66;;;11.12;80.79
7178;BME280;3630;42.146;24.756;2023-02-28T07:47:51;100355.69;;;11.23;80.54
7178;BME280;3630;42.146;24.756;2023-02-28T07:50:20;100349.75;;;11.25;80.53
7178;BME280;3630;42.146;24.756;2023-02-28T07:52:47;100345.97;;;11.44;80.37
7178;BME280;3630;42.146;24.756;2023-02-28T07:55:14;100356.19;;;11.41;79.96
7178;BME280;3630;42.146;24.756;2023-02-28T07:57:42;100359.09;;;11.22;80.67
7178;BME280;3630;42.146;24.756;2023-02-28T08:00:11;100357.22;;;11.16;81.09
7178;BME280;3630;42.146;24.756;2023-02-28T08:02:38;100359.78;;;11.16;81.23
7178;BME280;3630;42.146;24.756;2023-02-28T08:05:05;100366.34;;;11.05;81.76
7178;BME280;3630;42.146;24.756;2023-02-28T08:07:34;100362.44;;;11.19;81.97
7178;BME280;3630;42.146;24.756;2023-02-28T08:10:01;100365.13;;;11.24;81.43
7178;BME280;3630;42.146;24.756;2023-02-28T08:12:28;100368.19;;;11.09;82.14
7178;BME280;3630;42.146;24.756;2023-02-28T08:14:54;100373.38;;;11.12;81.97
7178;BME280;3630;42.146;24.756;2023-02-28T08:17:21;100372.66;;;11.16;82.06
7178;BME280;3630;42.146;24.756;2023-02-28T08:19:48;100367.81;;;10.97;82.86
7178;BME280;3630;42.146;24.756;2023-02-28T08:22:15;100366.75;;;10.91;82.84
7178;BME280;3630;42.146;24.756;2023-02-28T08:24:43;100366.13;;;10.98;83.14
7178;BME280;3630;42.146;24.756;2023-02-28T08:27:10;100363.97;;;11.13;82.43
7178;BME280;3630;42.146;24.756;2023-02-28T08:29:38;100348.63;;;11.16;82.39
7178;BME280;3630;42.146;24.756;2023-02-28T08:32:06;100349.41;;;11.13;81.79
7178;BME280;3630;42.146;24.756;2023-02-28T08:34:33;100354.06;;;11.26;81.43
7178;BME280;3630;42.146;24.756;2023-02-28T08:36:59;100352.31;;;11.25;81.95
7178;BME280;3630;42.146;24.756;2023-02-28T08:39:26;100362.72;;;11.30;81.17
7178;BME280;3630;42.146;24.756;2023-02-28T08:41:55;100359.53;;;11.39;81.70
7178;BME280;3630;42.146;24.756;2023-02-28T08:44:21;100362.47;;;11.52;80.79
7178;BME280;3630;42.146;24.756;2023-02-28T08:46:48;100363.97;;;11.44;80.80
7178;BME280;3630;42.146;24.756;2023-02-28T08:49:15;100366.00;;;11.56;80.68
7178;BME280;3630;42.146;24.756;2023-02-28T08:51:42;100377.47;;;11.67;79.97
7178;BME280;3630;42.146;24.756;2023-02-28T08:54:09;100357.91;;;11.73;79.42
7178;BME280;3630;42.146;24.756;2023-02-28T08:56:38;100379.53;;;11.80;78.59
7178;BME280;3630;42.146;24.756;2023-02-28T08:59:08;100372.31;;;11.67;79.41
7178;BME280;3630;42.146;24.756;2023-02-28T09:01:35;100379.94;;;11.64;78.97
7178;BME280;3630;42.146;24.756;2023-02-28T09:04:02;100372.69;;;11.49;79.88
7178;BME280;3630;42.146;24.756;2023-02-28T09:06:29;100370.13;;;11.49;80.33
7178;BME280;3630;42.146;24.756;2023-02-28T09:08:57;100372.97;;;11.60;80.22
7178;BME280;3630;42.146;24.756;2023-02-28T09:11:25;100374.13;;;11.69;79.40
7178;BME280;3630;42.146;24.756;2023-02-28T09:13:52;100375.28;;;11.82;78.88
7178;BME280;3630;42.146;24.756;2023-02-28T09:16:22;100370.28;;;11.87;77.94
7178;BME280;3630;42.146;24.756;2023-02-28T09:18:48;100369.06;;;11.72;78.71
7178;BME280;3630;42.146;24.756;2023-02-28T09:21:16;100368.09;;;11.69;78.98
7178;BME280;3630;42.146;24.756;2023-02-28T09:23:45;100366.91;;;11.58;79.05
7178;BME280;3630;42.146;24.756;2023-02-28T09:26:17;100358.22;;;11.53;79.62
7178;BME280;3630;42.146;24.756;2023-02-28T09:28:44;100356.28;;;11.46;79.80
7178;BME280;3630;42.146;24.756;2023-02-28T09:31:12;100330.09;;;11.29;79.83
7178;BME280;3630;42.146;24.756;2023-02-28T09:33:41;100355.44;;;11.45;79.61
7178;BME280;3630;42.146;24.756;2023-02-28T09:36:08;100343.19;;;11.37;80.05
7178;BME280;3630;42.146;24.756;2023-02-28T09:38:35;100346.78;;;11.43;79.61
7178;BME280;3630;42.146;24.756;2023-02-28T09:41:04;100347.66;;;11.44;80.02
7178;BME280;3630;42.146;24.756;2023-02-28T09:43:39;100360.78;;;11.53;79.50
7178;BME280;3630;42.146;24.756;2023-02-28T09:46:14;100350.84;;;11.34;80.59
7178;BME280;3630;42.146;24.756;2023-02-28T09:48:48;100354.66;;;11.48;80.19
7178;BME280;3630;42.146;24.756;2023-02-28T09:51:27;100363.53;;;11.59;79.83
7178;BME280;3630;42.146;24.756;2023-02-28T09:53:56;100348.81;;;11.55;79.81
7178;BME280;3630;42.146;24.756;2023-02-28T09:56:25;100351.31;;;11.52;80.09
7178;BME280;3630;42.146;24.756;2023-02-28T09:58:57;100355.38;;;11.44;80.41
7178;BME280;3630;42.146;24.756;2023-02-28T10:01:31;100346.84;;;11.45;80.55
7178;BME280;3630;42.146;24.756;2023-02-28T10:04:07;100330.47;;;11.43;80.80
7178;BME280;3630;42.146;24.756;2023-02-28T10:06:42;100321.41;;;11.57;80.53
7178;BME280;3630;42.146;24.756;2023-02-28T10:09:14;100314.63;;;11.59;79.68
7178;BME280;3630;42.146;24.756;2023-02-28T10:11:46;100324.94;;;11.60;80.38
7178;BME280;3630;42.146;24.756;2023-02-28T10:14:16;100330.41;;;11.40;80.51
7178;BME280;3630;42.146;24.756;2023-02-28T10:16:46;100329.75;;;11.48;80.76
7178;BME280;3630;42.146;24.756;2023-02-28T10:19:23;100325.28;;;11.40;81.27
7178;BME280;3630;42.146;24.756;2023-02-28T10:21:57;100317.84;;;11.52;81.15
7178;BME280;3630;42.146;24.756;2023-02-28T10:24:28;100319.91;;;11.65;80.84
7178;BME280;3630;42.146;24.756;2023-02-28T10:27:00;100316.63;;;11.70;80.18
7178;BME280;3630;42.146;24.756;2023-02-28T10:29:27;100316.59;;;11.69;80.19
7178;BME280;3630;42.146;24.756;2023-02-28T10:32:00;100313.13;;;11.68;80.07
7178;BME280;3630;42.146;24.756;2023-02-28T10:34:30;100304.44;;;11.63;79.84
7178;BME280;3630;42.146;24.756;2023-02-28T10:36:58;100311.63;;;11.75;79.30
7178;BME280;3630;42.146;24.756;2023-02-28T10:39:41;100304.19;;;11.54;80.00
7178;BME280;3630;42.146;24.756;2023-02-28T10:42:23;100307.69;;;11.56;79.82
7178;BME280;3630;42.146;24.756;2023-02-28T10:45:09;100311.88;;;11.53;80.49
7178;BME280;3630;42.146;24.756;2023-02-28T10:47:48;100309.22;;;11.50;80.38
7178;BME280;3630;42.146;24.756;2023-02-28T10:50:39;100307.28;;;11.41;81.04
7178;BME280;3630;42.146;24.756;2023-02-28T10:53:17;100302.22;;;11.44;81.26
7178;BME280;3630;42.146;24.756;2023-02-28T10:55:56;100286.25;;;11.24;81.45
7178;BME280;3630;42.146;24.756;2023-02-28T10:58:25;100304.88;;;11.47;80.96
7178;BME280;3630;42.146;24.756;2023-02-28T11:00:53;100290.97;;;11.41;81.30
7178;BME280;3630;42.146;24.756;2023-02-28T11:03:31;100295.38;;;11.45;81.15
7178;BME280;3630;42.146;24.756;2023-02-28T11:06:05;100289.53;;;11.52;80.94
7178;BME280;3630;42.146;24.756;2023-02-28T11:08:34;100290.41;;;11.52;80.22
7178;BME280;3630;42.146;24.756;2023-02-28T11:11:06;100296.56;;;11.24;81.24
7178;BME280;3630;42.146;24.756;2023-02-28T11:13:34;100290.44;;;11.21;81.76
7178;BME280;3630;42.146;24.756;2023-02-28T11:16:05;100282.03;;;11.26;82.02
7178;BME280;3630;42.146;24.756;2023-02-28T11:18:38;100282.16;;;11.31;81.29
7178;BME280;3630;42.146;24.756;2023-02-28T11:21:08;100279.63;;;11.33;81.49
7178;BME280;3630;42.146;24.756;2023-02-28T11:23:37;100284.72;;;11.31;81.50
7178;BME280;3630;42.146;24.756;2023-02-28T11:26:07;100284.22;;;11.11;82.92
7178;BME280;3630;42.146;24.756;2023-02-28T11:28:37;100279.94;;;11.12;83.90
7178;BME280;3630;42.146;24.756;2023-02-28T11:31:15;100279.66;;;11.01;85.32
7178;BME280;3630;42.146;24.756;2023-02-28T11:33:45;100278.03;;;11.05;85.95
7178;BME280;3630;42.146;24.756;2023-02-28T11:36:18;100275.97;;;10.93;87.03
7178;BME280;3630;42.146;24.756;2023-02-28T11:38:45;100282.97;;;10.97;88.13
7178;BME280;3630;42.146;24.756;2023-02-28T11:41:45;100274.38;;;10.97;89.00
7178;BME280;3630;42.146;24.756;2023-02-28T11:44:31;100271.19;;;11.05;89.00
7178;BME280;3630;42.146;24.756;2023-02-28T11:47:08;100273.63;;;11.01;90.13
7178;BME280;3630;42.146;24.756;2023-02-28T11:49:45;100265.84;;;10.98;90.53
7178;BME280;3630;42.146;24.756;2023-02-28T11:52:21;100248.25;;;10.82;91.11
7178;BME280;3630;42.146;24.756;2023-02-28T11:55:03;100277.53;;;10.87;90.99
7178;BME280;3630;42.146;24.756;2023-02-28T11:57:41;100267.88;;;10.80;91.42
7178;BME280;3630;42.146;24.756;2023-02-28T12:00:28;100272.22;;;10.51;92.03
7178;BME280;3630;42.146;24.756;2023-02-28T12:03:06;100265.22;;;10.45;93.28
7178;BME280;3630;42.146;24.756;2023-02-28T12:05:42;100273.13;;;10.53;93.78
7178;BME280;3630;42.146;24.756;2023-02-28T12:08:26;100266.09;;;10.46;94.03
7178;BME280;3630;42.146;24.756;2023-02-28T12:11:04;100266.41;;;10.56;94.82
7178;BME280;3630;42.146;24.756;2023-02-28T12:13:40;100256.22;;;10.59;94.24
7178;BME280;3630;42.146;24.756;2023-02-28T12:16:30;100257.13;;;10.61;93.98
7178;BME280;3630;42.146;24.756;2023-02-28T12:19:06;100261.88;;;10.48;93.27
7178;BME280;3630;42.146;24.756;2023-02-28T12:21:51;100259.97;;;10.42;93.75
7178;BME280;3630;42.146;24.756;2023-02-28T12:24:44;100255.75;;;10.44;93.67
7178;BME280;3630;42.146;24.756;2023-02-28T12:27:13;100266.44;;;10.58;94.16
7178;BME280;3630;42.146;24.756;2023-02-28T12:29:47;100255.69;;;10.71;93.74
7178;BME280;3630;42.146;24.756;2023-02-28T12:32:20;100259.16;;;10.73;93.04
7178;BME280;3630;42.146;24.756;2023-02-28T12:34:49;100249.00;;;10.78;92.89
7178;BME280;3630;42.146;24.756;2023-02-28T12:37:22;100246.75;;;10.58;93.07
7178;BME280;3630;42.146;24.756;2023-02-28T12:39:56;100244.28;;;10.63;93.47
7178;BME280;3630;42.146;24.756;2023-02-28T12:42:28;100241.66;;;10.60;93.64
7178;BME280;3630;42.146;24.756;2023-02-28T12:44:58;100241.66;;;10.60;93.25
7178;BME280;3630;42.146;24.756;2023-02-28T12:47:25;100246.66;;;10.55;93.29
7178;BME280;3630;42.146;24.756;2023-02-28T12:49:57;100235.47;;;10.53;93.41
7178;BME280;3630;42.146;24.756;2023-02-28T12:52:30;100238.03;;;10.53;93.63
7178;BME280;3630;42.146;24.756;2023-02-28T12:55:08;100240.81;;;10.61;93.74
7178;BME280;3630;42.146;24.756;2023-02-28T12:57:41;100242.84;;;10.71;93.69
7178;BME280;3630;42.146;24.756;2023-02-28T13:00:13;100231.78;;;10.75;93.23
7178;BME280;3630;42.146;24.756;2023-02-28T13:05:53;100250.63;;;10.44;94.00
7178;BME280;3630;42.146;24.756;2023-02-28T13:09:01;100242.66;;;10.35;95.49
7178;BME280;3630;42.146;24.756;2023-02-28T13:11:32;100240.59;;;10.24;96.69
7178;BME280;3630;42.146;24.756;2023-02-28T13:14:01;100238.31;;;10.33;97.25
7178;BME280;3630;42.146;24.756;2023-02-28T13:16:50;100237.00;;;10.47;97.50
7178;BME280;3630;42.146;24.756;2023-02-28T13:19:20;100211.28;;;10.47;97.74
7178;BME280;3630;42.146;24.756;2023-02-28T13:21:48;100236.56;;;10.61;97.43
7178;BME280;3630;42.146;24.756;2023-02-28T13:24:44;100234.50;;;10.50;97.22
7178;BME280;3630;42.146;24.756;2023-02-28T13:27:35;100230.31;;;10.52;98.45